sensor_id;sensor_type;location;lat;lon;timestamp;pressure;altitude;pressure_sealevel;temperature;humidity
58622;BME280;44389;51.578;5.456;2023-04-07T00:02:24;101337.66;;;7.13;100.00
58622;BME280;44389;51.578;5.456;2023-04-07T00:04:51;101340.22;;;7.13;100.00
58622;BME280;44389;51.578;5.456;2023-04-07T00:07:16;101337.56;;;7.12;100.00
58622;BME280;44389;51.578;5.456;2023-04-07T00:09:41;101339.09;;;7.08;100.00
58622;BME280;44389;51.578;5.456;2023-04-07T00:12:07;101336.53;;;7.08;100.00
58622;BME280;44389;51.578;5.456;2023-04-07T00:14:33;101342.44;;;7.07;100.00
58622;BME280;44389;51.578;5.456;2023-04-07T00:16:58;101338.13;;;7.06;100.00
58622;BME280;44389;51.578;5.456;2023-04-07T00:19:23;101338.69;;;7.00;100.00
58622;BME280;44389;51.578;5.456;2023-04-07T00:21:49;101342.13;;;7.01;100.00
58622;BME280;44389;51.578;5.456;2023-04-07T00:24:14;101348.88;;;6.99;100.00
58622;BME280;44389;51.578;5.456;2023-04-07T00:26:39;101338.63;;;6.99;100.00
58622;BME280;44389;51.578;5.456;2023-04-07T00:29:05;101343.69;;;6.97;100.00
58622;BME280;44389;51.578;5.456;2023-04-07T00:31:30;101336.78;;;6.96;100.00
58622;BME280;44389;51.578;5.456;2023-04-07T00:33:55;101341.13;;;6.97;100.00
58622;BME280;44389;51.578;5.456;2023-04-07T00:36:21;101341.84;;;6.95;100.00
58622;BME280;44389;51.578;5.456;2023-04-07T00:38:47;101335.72;;;6.92;100.00
58622;BME280;44389;51.578;5.456;2023-04-07T00:41:12;101335.59;;;6.89;100.00
58622;BME280;44389;51.578;5.456;2023-04-07T00:43:37;101336.31;;;6.87;100.00
58622;BME280;44389;51.578;5.456;2023-04-07T00:46:03;101334.47;;;6.84;100.00
58622;BME280;44389;51.578;5.456;2023-04-07T00:48:28;101335.25;;;6.83;100.00
58622;BME280;44389;51.578;5.456;2023-04-07T00:50:53;101341.09;;;6.81;100.00
58622;BME280;44389;51.578;5.456;2023-04-07T00:53:19;101338.47;;;6.79;100.00
58622;BME280;44389;51.578;5.456;2023-04-07T00:55:44;101345.19;;;6.77;100.00
58622;BME280;44389;51.578;5.456;2023-04-07T00:58:10;101347.75;;;6.77;100.00
58622;BME280;44389;51.578;5.456;2023-04-07T01:00:41;101345.19;;;6.77;100.00
58622;BME280;44389;51.578;5.456;2023-04-07T01:03:13;101332.28;;;6.75;100.00
58622;BME280;44389;51.578;5.456;2023-04-07T01:05:56;101341.63;;;6.75;100.00
58622;BME280;44389;51.578;5.456;2023-04-07T01:08:41;101339.97;;;6.75;100.00
58622;BME280;44389;51.578;5.456;2023-04-07T01:13:47;101337.16;;;6.71;100.00
58622;BME280;44389;51.578;5.456;2023-04-07T01:16:18;101340.50;;;6.70;100.00
58622;BME280;44389;51.578;5.456;2023-04-07T01:18:50;101334.53;;;6.69;100.00
58622;BME280;44389;51.578;5.456;2023-04-07T01:21:17;101343.91;;;6.69;100.00
58622;BME280;44389;51.578;5.456;2023-04-07T01:24:21;101338.94;;;6.72;100.00
58622;BME280;44389;51.578;5.456;2023-04-07T01:26:51;101349.03;;;6.69;100.00
58622;BME280;44389;51.578;5.456;2023-04-07T01:29:33;101340.63;;;6.71;100.00
58622;BME280;44389;51.578;5.456;2023-04-07T01:32:02;101344.50;;;6.65;100.00
58622;BME280;44389;51.578;5.456;2023-04-07T01:34:29;101357.31;;;6.65;100.00
58622;BME280;44389;51.578;5.456;2023-04-07T01:36:56;101355.66;;;6.65;100.00
58622;BME280;44389;51.578;5.456;2023-04-07T01:39:23;101346.91;;;6.62;100.00
58622;BME280;44389;51.578;5.456;2023-04-07T01:41:51;101356.19;;;6.59;100.00
58622;BME280;44389;51.578;5.456;2023-04-07T01:44:18;101354.25;;;6.55;100.00
58622;BME280;44389;51.578;5.456;2023-04-07T01:46:44;101354.19;;;6.54;100.00
58622;BME280;44389;51.578;5.456;2023-04-07T01:49:11;101359.22;;;6.52;100.00
58622;BME280;44389;51.578;5.456;2023-04-07T01:51:38;101359.94;;;6.50;100.00
58622;BME280;44389;51.578;5.456;2023-04-07T01:54:04;101359.88;;;6.48;100.00
58622;BME280;44389;51.578;5.456;2023-04-07T01:56:29;101368.34;;;6.47;100.00
58622;BME280;44389;51.578;5.456;2023-04-07T01:58:55;101369.13;;;6.46;100.00
58622;BME280;44389;51.578;5.456;2023-04-07T02:01:20;101368.16;;;6.44;100.00
58622;BME280;44389;51.578;5.456;2023-04-07T02:03:52;101375.84;;;6.44;100.00
58622;BME280;44389;51.578;5.456;2023-04-07T02:06:22;101382.66;;;6.43;100.00
58622;BME280;44389;51.578;5.456;2023-04-07T02:08:53;101379.38;;;6.46;100.00
58622;BME280;44389;51.578;5.456;2023-04-07T02:11:21;101375.94;;;6.46;100.00
58622;BME280;44389;51.578;5.456;2023-04-07T02:13:47;101375.94;;;6.46;100.00
58622;BME280;44389;51.578;5.456;2023-04-07T02:16:13;101379.53;;;6.49;100.00
58622;BME280;44389;51.578;5.456;2023-04-07T02:18:41;101382.91;;;6.48;100.00
58622;BME280;44389;51.578;5.456;2023-04-07T02:21:08;101382.09;;;6.49;100.00
58622;BME280;44389;51.578;5.456;2023-04-07T02:23:35;101378.75;;;6.50;100.00
58622;BME280;44389;51.578;5.456;2023-04-07T02:26:00;101377.81;;;6.48;100.00
58622;BME280;44389;51.578;5.456;2023-04-07T02:28:25;101373.47;;;6.47;100.00
58622;BME280;44389;51.578;5.456;2023-04-07T02:30:50;101381.94;;;6.46;100.00
58622;BME280;44389;51.578;5.456;2023-04-07T02:33:16;101375.94;;;6.46;100.00
58622;BME280;44389;51.578;5.456;2023-04-07T02:35:41;101374.09;;;6.43;100.00
58622;BME280;44389;51.578;5.456;2023-04-07T02:38:06;101366.41;;;6.43;100.00
58622;BME280;44389;51.578;5.456;2023-04-07T02:40:32;101367.22;;;6.42;100.00
58622;BME280;44389;51.578;5.456;2023-04-07T02:42:57;101370.56;;;6.41;100.00
58622;BME280;44389;51.578;5.456;2023-04-07T02:45:23;101369.78;;;6.42;100.00
58622;BME280;44389;51.578;5.456;2023-04-07T02:47:48;101370.72;;;6.44;100.00
58622;BME280;44389;51.578;5.456;2023-04-07T02:50:14;101368.97;;;6.43;100.00
58622;BME280;44389;51.578;5.456;2023-04-07T02:52:39;101368.97;;;6.43;100.00
58622;BME280;44389;51.578;5.456;2023-04-07T02:55:05;101372.34;;;6.42;100.00
58622;BME280;44389;51.578;5.456;2023-04-07T02:57:31;101369.78;;;6.42;100.00
58622;BME280;44389;51.578;5.456;2023-04-07T02:59:56;101371.53;;;6.43;100.00
58622;BME280;44389;51.578;5.456;2023-04-07T03:02:25;101368.00;;;6.41;100.00
58622;BME280;44389;51.578;5.456;2023-04-07T03:04:51;101374.09;;;6.43;100.00
58622;BME280;44389;51.578;5.456;2023-04-07T03:07:17;101372.34;;;6.42;100.00
58622;BME280;44389;51.578;5.456;2023-04-07T03:09:42;101375.84;;;6.44;100.00
58622;BME280;44389;51.578;5.456;2023-04-07T03:12:08;101367.38;;;6.45;100.00
58622;BME280;44389;51.578;5.456;2023-04-07T03:14:33;101370.72;;;6.44;100.00
58622;BME280;44389;51.578;5.456;2023-04-07T03:16:58;101372.50;;;6.45;100.00
58622;BME280;44389;51.578;5.456;2023-04-07T03:19:24;101372.50;;;6.45;100.00
58622;BME280;44389;51.578;5.456;2023-04-07T03:21:49;101368.09;;;6.42;100.00
58622;BME280;44389;51.578;5.456;2023-04-07T03:24:14;101375.69;;;6.41;100.00
58622;BME280;44389;51.578;5.456;2023-04-07T03:26:40;101375.69;;;6.41;100.00
58622;BME280;44389;51.578;5.456;2023-04-07T03:29:05;101378.25;;;6.41;100.00
58622;BME280;44389;51.578;5.456;2023-04-07T03:31:31;101374.00;;;6.41;100.00
58622;BME280;44389;51.578;5.456;2023-04-07T03:33:56;101379.03;;;6.40;100.00
58622;BME280;44389;51.578;5.456;2023-04-07T03:36:21;101370.56;;;6.41;100.00
58622;BME280;44389;51.578;5.456;2023-04-07T03:38:47;101377.25;;;6.39;100.00
58622;BME280;44389;51.578;5.456;2023-04-07T03:41:12;101377.25;;;6.39;100.00
58622;BME280;44389;51.578;5.456;2023-04-07T03:43:37;101380.66;;;6.38;100.00
58622;BME280;44389;51.578;5.456;2023-04-07T03:46:03;101379.03;;;6.40;100.00
58622;BME280;44389;51.578;5.456;2023-04-07T03:48:28;101376.56;;;6.41;100.00
58622;BME280;44389;51.578;5.456;2023-04-07T03:50:53;101382.56;;;6.42;100.00
58622;BME280;44389;51.578;5.456;2023-04-07T03:53:19;101383.38;;;6.41;100.00
58622;BME280;44389;51.578;5.456;2023-04-07T03:55:44;101390.25;;;6.42;100.00
58622;BME280;44389;51.578;5.456;2023-04-07T03:58:10;101391.03;;;6.41;100.00
58622;BME280;44389;51.578;5.456;2023-04-07T04:00:36;101391.91;;;6.41;100.00
58622;BME280;44389;51.578;5.456;2023-04-07T04:03:01;101386.63;;;6.38;100.00
58622;BME280;44389;51.578;5.456;2023-04-07T04:05:26;101389.28;;;6.40;100.00
58622;BME280;44389;51.578;5.456;2023-04-07T04:07:52;101394.25;;;6.37;100.00
58622;BME280;44389;51.578;5.456;2023-04-07T04:10:18;101387.44;;;6.37;100.00
58622;BME280;44389;51.578;5.456;2023-04-07T04:12:43;101386.94;;;6.28;100.00
58622;BME280;44389;51.578;5.456;2023-04-07T04:15:09;101384.44;;;6.30;100.00
58622;BME280;44389;51.578;5.456;2023-04-07T04:17:35;101391.06;;;6.26;100.00
58622;BME280;44389;51.578;5.456;2023-04-07T04:20:00;101389.94;;;6.21;100.00
58622;BME280;44389;51.578;5.456;2023-04-07T04:22:26;101389.50;;;6.13;100.00
58622;BME280;44389;51.578;5.456;2023-04-07T04:24:51;101391.81;;;6.08;100.00
58622;BME280;44389;51.578;5.456;2023-04-07T04:27:16;101391.53;;;6.04;100.00
58622;BME280;44389;51.578;5.456;2023-04-07T04:29:41;101386.50;;;5.90;100.00
58622;BME280;44389;51.578;5.456;2023-04-07T04:32:07;101391.69;;;5.92;100.00
58622;BME280;44389;51.578;5.456;2023-04-07T04:34:32;101392.03;;;5.83;100.00
58622;BME280;44389;51.578;5.456;2023-04-07T04:36:57;101393.44;;;5.78;100.00
58622;BME280;44389;51.578;5.456;2023-04-07T04:39:22;101394.00;;;5.72;100.00
58622;BME280;44389;51.578;5.456;2023-04-07T04:41:48;101394.50;;;5.67;100.00
58622;BME280;44389;51.578;5.456;2023-04-07T04:44:13;101404.28;;;5.59;100.00
58622;BME280;44389;51.578;5.456;2023-04-07T04:46:38;101403.03;;;5.52;100.00
58622;BME280;44389;51.578;5.456;2023-04-07T04:49:03;101401.09;;;5.48;100.00
58622;BME280;44389;51.578;5.456;2023-04-07T04:51:30;101405.50;;;5.51;100.00
58622;BME280;44389;51.578;5.456;2023-04-07T04:53:55;101410.91;;;5.55;100.00
58622;BME280;44389;51.578;5.456;2023-04-07T04:56:21;101418.38;;;5.52;100.00
58622;BME280;44389;51.578;5.456;2023-04-07T04:58:46;101422.72;;;5.53;100.00
58622;BME280;44389;51.578;5.456;2023-04-07T05:01:12;101424.84;;;5.60;100.00
58622;BME280;44389;51.578;5.456;2023-04-07T05:03:37;101423.53;;;5.67;100.00
58622;BME280;44389;51.578;5.456;2023-04-07T05:06:03;101426.34;;;5.72;100.00
58622;BME280;44389;51.578;5.456;2023-04-07T05:08:28;101418.06;;;5.76;100.00
58622;BME280;44389;51.578;5.456;2023-04-07T05:10:53;101427.78;;;5.82;100.00
58622;BME280;44389;51.578;5.456;2023-04-07T05:13:19;101431.31;;;5.84;100.00
58622;BME280;44389;51.578;5.456;2023-04-07T05:15:45;101426.38;;;5.87;100.00
58622;BME280;44389;51.578;5.456;2023-04-07T05:18:10;101426.66;;;5.91;100.00
58622;BME280;44389;51.578;5.456;2023-04-07T05:20:36;101429.38;;;5.94;100.00
58622;BME280;44389;51.578;5.456;2023-04-07T05:23:02;101425.22;;;5.97;100.00
58622;BME280;44389;51.578;5.456;2023-04-07T05:25:27;101431.34;;;5.99;100.00
58622;BME280;44389;51.578;5.456;2023-04-07T05:27:52;101434.97;;;6.02;100.00
58622;BME280;44389;51.578;5.456;2023-04-07T05:30:18;101445.34;;;6.05;100.00
58622;BME280;44389;51.578;5.456;2023-04-07T05:32:43;101438.59;;;6.06;100.00
58622;BME280;44389;51.578;5.456;2023-04-07T05:35:08;101443.06;;;6.10;100.00
58622;BME280;44389;51.578;5.456;2023-04-07T05:37:34;101440.44;;;6.08;100.00
58622;BME280;44389;51.578;5.456;2023-04-07T05:40:00;101442.38;;;6.13;100.00
58622;BME280;44389;51.578;5.456;2023-04-07T05:42:25;101438.94;;;6.12;100.00
58622;BME280;44389;51.578;5.456;2023-04-07T05:44:50;101446.00;;;6.16;100.00
58622;BME280;44389;51.578;5.456;2023-04-07T05:47:16;101447.75;;;6.17;100.00
58622;BME280;44389;51.578;5.456;2023-04-07T05:49:41;101439.47;;;6.21;100.00
58622;BME280;44389;51.578;5.456;2023-04-07T05:52:11;101443.69;;;6.21;100.00
58622;BME280;44389;51.578;5.456;2023-04-07T05:54:36;101452.41;;;6.24;100.00
58622;BME280;44389;51.578;5.456;2023-04-07T05:57:01;101454.19;;;6.25;100.00
58622;BME280;44389;51.578;5.456;2023-04-07T05:59:27;101451.72;;;6.27;100.00
58622;BME280;44389;51.578;5.456;2023-04-07T06:01:53;101450.13;;;6.29;100.00
58622;BME280;44389;51.578;5.456;2023-04-07T06:04:18;101451.09;;;6.31;100.00
58622;BME280;44389;51.578;5.456;2023-04-07T06:06:43;101456.47;;;6.36;100.00
58622;BME280;44389;51.578;5.456;2023-04-07T06:09:08;101456.41;;;6.34;100.00
58622;BME280;44389;51.578;5.456;2023-04-07T06:11:34;101460.97;;;6.40;100.00
58622;BME280;44389;51.578;5.456;2023-04-07T06:13:59;101461.88;;;6.40;100.00
58622;BME280;44389;51.578;5.456;2023-04-07T06:16:24;101463.72;;;6.43;100.00
58622;BME280;44389;51.578;5.456;2023-04-07T06:18:50;101471.56;;;6.46;100.00
58622;BME280;44389;51.578;5.456;2023-04-07T06:21:15;101470.13;;;6.51;100.00
58622;BME280;44389;51.578;5.456;2023-04-07T06:23:40;101477.97;;;6.54;100.00
58622;BME280;44389;51.578;5.456;2023-04-07T06:26:09;101474.00;;;6.59;100.00
58622;BME280;44389;51.578;5.456;2023-04-07T06:28:35;101483.38;;;6.59;100.00
58622;BME280;44389;51.578;5.456;2023-04-07T06:31:01;101477.53;;;6.62;100.00
58622;BME280;44389;51.578;5.456;2023-04-07T06:33:26;101480.38;;;6.66;100.00
58622;BME280;44389;51.578;5.456;2023-04-07T06:35:52;101477.91;;;6.68;100.00
58622;BME280;44389;51.578;5.456;2023-04-07T06:38:18;101483.34;;;6.74;100.00
58622;BME280;44389;51.578;5.456;2023-04-07T06:40:43;101486.09;;;6.77;100.00
58622;BME280;44389;51.578;5.456;2023-04-07T06:43:08;101484.38;;;6.78;100.00
58622;BME280;44389;51.578;5.456;2023-04-07T06:45:34;101492.34;;;6.82;100.00
58622;BME280;44389;51.578;5.456;2023-04-07T06:47:59;101490.91;;;6.87;100.00
58622;BME280;44389;51.578;5.456;2023-04-07T06:50:24;101496.91;;;6.88;100.00
58622;BME280;44389;51.578;5.456;2023-04-07T06:52:50;101501.81;;;6.83;100.00
58622;BME280;44389;51.578;5.456;2023-04-07T06:55:15;101499.41;;;6.86;100.00
58622;BME280;44389;51.578;5.456;2023-04-07T06:57:40;101496.19;;;6.90;100.00
58622;BME280;44389;51.578;5.456;2023-04-07T07:00:06;101506.25;;;7.02;100.00
58622;BME280;44389;51.578;5.456;2023-04-07T07:02:32;101500.56;;;7.08;100.00
58622;BME280;44389;51.578;5.456;2023-04-07T07:04:57;101501.44;;;7.08;100.00
58622;BME280;44389;51.578;5.456;2023-04-07T07:07:23;101510.25;;;7.14;100.00
58622;BME280;44389;51.578;5.456;2023-04-07T07:09:50;101511.41;;;7.19;100.00
58622;BME280;44389;51.578;5.456;2023-04-07T07:12:15;101511.81;;;7.27;100.00
58622;BME280;44389;51.578;5.456;2023-04-07T07:14:42;101513.72;;;7.31;100.00
58622;BME280;44389;51.578;5.456;2023-04-07T07:17:07;101516.00;;;7.41;100.00
58622;BME280;44389;51.578;5.456;2023-04-07T07:19:32;101522.25;;;7.46;100.00
58622;BME280;44389;51.578;5.456;2023-04-07T07:22:01;101515.34;;;7.62;100.00
58622;BME280;44389;51.578;5.456;2023-04-07T07:24:28;101520.81;;;7.84;100.00
58622;BME280;44389;51.578;5.456;2023-04-07T07:26:53;101520.41;;;7.93;100.00
58622;BME280;44389;51.578;5.456;2023-04-07T07:29:19;101521.34;;;7.95;100.00
58622;BME280;44389;51.578;5.456;2023-04-07T07:31:44;101523.06;;;7.95;100.00
58622;BME280;44389;51.578;5.456;2023-04-07T07:34:09;101526.00;;;8.02;100.00
58622;BME280;44389;51.578;5.456;2023-04-07T07:36:35;101525.94;;;8.01;100.00
58622;BME280;44389;51.578;5.456;2023-04-07T07:39:00;101534.34;;;8.15;100.00
58622;BME280;44389;51.578;5.456;2023-04-07T07:41:25;101533.28;;;8.28;100.00
58622;BME280;44389;51.578;5.456;2023-04-07T07:43:51;101540.25;;;8.30;100.00
58622;BME280;44389;51.578;5.456;2023-04-07T07:46:16;101547.72;;;8.26;100.00
58622;BME280;44389;51.578;5.456;2023-04-07T07:48:42;101545.47;;;8.15;100.00
58622;BME280;44389;51.578;5.456;2023-04-07T07:51:07;101544.69;;;8.16;100.00
58622;BME280;44389;51.578;5.456;2023-04-07T07:53:32;101550.56;;;8.14;100.00
58622;BME280;44389;51.578;5.456;2023-04-07T07:55:58;101556.06;;;8.21;100.00
58622;BME280;44389;51.578;5.456;2023-04-07T07:58:23;101551.72;;;8.20;100.00
58622;BME280;44389;51.578;5.456;2023-04-07T08:00:48;101561.22;;;8.21;100.00
58622;BME280;44389;51.578;5.456;2023-04-07T08:03:15;101557.19;;;8.27;100.00
58622;BME280;44389;51.578;5.456;2023-04-07T08:05:40;101562.63;;;8.33;100.00
58622;BME280;44389;51.578;5.456;2023-04-07T08:08:06;101556.38;;;8.28;100.00
58622;BME280;44389;51.578;5.456;2023-04-07T08:10:32;101556.66;;;8.34;100.00
58622;BME280;44389;51.578;5.456;2023-04-07T08:12:57;101564.75;;;8.41;100.00
58622;BME280;44389;51.578;5.456;2023-04-07T08:15:23;101568.84;;;8.54;100.00
58622;BME280;44389;51.578;5.456;2023-04-07T08:17:48;101558.97;;;8.80;100.00
58622;BME280;44389;51.578;5.456;2023-04-07T08:20:13;101560.31;;;8.90;100.00
58622;BME280;44389;51.578;5.456;2023-04-07T08:22:40;101580.94;;;8.92;100.00
58622;BME280;44389;51.578;5.456;2023-04-07T08:25:07;101573.94;;;8.71;100.00
58622;BME280;44389;51.578;5.456;2023-04-07T08:27:32;101577.31;;;8.70;100.00
58622;BME280;44389;51.578;5.456;2023-04-07T08:30:03;101577.91;;;8.64;100.00
58622;BME280;44389;51.578;5.456;2023-04-07T08:32:38;101583.78;;;8.62;100.00
58622;BME280;44389;51.578;5.456;2023-04-07T08:35:04;101590.69;;;8.63;100.00
58622;BME280;44389;51.578;5.456;2023-04-07T08:37:30;101595.03;;;8.64;100.00
58622;BME280;44389;51.578;5.456;2023-04-07T08:39:56;101591.41;;;8.60;100.00
58622;BME280;44389;51.578;5.456;2023-04-07T08:42:26;101599.50;;;8.68;100.00
58622;BME280;44389;51.578;5.456;2023-04-07T08:44:52;101599.81;;;8.74;100.00
58622;BME280;44389;51.578;5.456;2023-04-07T08:47:18;101588.59;;;9.08;100.00
58622;BME280;44389;51.578;5.456;2023-04-07T08:49:46;101601.13;;;9.38;100.00
58622;BME280;44389;51.578;5.456;2023-04-07T08:52:13;101597.75;;;9.39;100.00
58622;BME280;44389;51.578;5.456;2023-04-07T08:54:40;101602.84;;;9.57;100.00
58622;BME280;44389;51.578;5.456;2023-04-07T08:57:07;101602.72;;;9.36;100.00
58622;BME280;44389;51.578;5.456;2023-04-07T08:59:32;101609.41;;;9.50;100.00
58622;BME280;44389;51.578;5.456;2023-04-07T09:01:59;101605.19;;;9.52;100.00
58622;BME280;44389;51.578;5.456;2023-04-07T09:04:25;101603.56;;;9.72;100.00
58622;BME280;44389;51.578;5.456;2023-04-07T09:06:51;101607.81;;;9.72;100.00
58622;BME280;44389;51.578;5.456;2023-04-07T09:09:17;101609.16;;;9.83;100.00
58622;BME280;44389;51.578;5.456;2023-04-07T09:11:42;101606.31;;;9.77;100.00
58622;BME280;44389;51.578;5.456;2023-04-07T09:14:07;101613.22;;;9.78;100.00
58622;BME280;44389;51.578;5.456;2023-04-07T09:16:33;101610.47;;;9.74;100.00
58622;BME280;44389;51.578;5.456;2023-04-07T09:18:59;101611.06;;;9.68;100.00
58622;BME280;44389;51.578;5.456;2023-04-07T09:21:24;101622.69;;;9.60;100.00
58622;BME280;44389;51.578;5.456;2023-04-07T09:23:51;101620.50;;;9.49;100.00
58622;BME280;44389;51.578;5.456;2023-04-07T09:28:43;101624.66;;;9.28;100.00
58622;BME280;44389;51.578;5.456;2023-04-07T09:31:09;101632.59;;;9.14;100.00
58622;BME280;44389;51.578;5.456;2023-04-07T09:33:34;101622.00;;;9.08;100.00
58622;BME280;44389;51.578;5.456;2023-04-07T09:36:01;101627.88;;;9.05;100.00
58622;BME280;44389;51.578;5.456;2023-04-07T09:38:34;101620.84;;;9.19;100.00
58622;BME280;44389;51.578;5.456;2023-04-07T09:41:06;101623.63;;;9.06;100.00
58622;BME280;44389;51.578;5.456;2023-04-07T09:43:34;101624.59;;;9.08;100.00
58622;BME280;44389;51.578;5.456;2023-04-07T09:46:13;101629.19;;;9.33;100.00
58622;BME280;44389;51.578;5.456;2023-04-07T09:48:39;101619.22;;;9.21;100.00
58622;BME280;44389;51.578;5.456;2023-04-07T09:51:12;101613.94;;;9.18;100.00
58622;BME280;44389;51.578;5.456;2023-04-07T09:53:47;101621.56;;;9.35;100.00
58622;BME280;44389;51.578;5.456;2023-04-07T09:56:17;101624.34;;;9.39;100.00
58622;BME280;44389;51.578;5.456;2023-04-07T09:58:44;101619.94;;;9.37;100.00
58622;BME280;44389;51.578;5.456;2023-04-07T10:01:11;101627.34;;;9.31;100.00
58622;BME280;44389;51.578;5.456;2023-04-07T10:03:37;101628.47;;;9.18;100.00
58622;BME280;44389;51.578;5.456;2023-04-07T10:06:04;101638.97;;;9.04;100.00
58622;BME280;44389;51.578;5.456;2023-04-07T10:08:32;101633.69;;;8.83;100.00
58622;BME280;44389;51.578;5.456;2023-04-07T10:10:58;101637.25;;;8.69;100.00
58622;BME280;44389;51.578;5.456;2023-04-07T10:13:27;101640.91;;;8.56;100.00
58622;BME280;44389;51.578;5.456;2023-04-07T10:15:53;101644.03;;;8.50;100.00
58622;BME280;44389;51.578;5.456;2023-04-07T10:18:20;101653.94;;;8.44;100.00
58622;BME280;44389;51.578;5.456;2023-04-07T10:20:47;101648.03;;;8.62;100.00
58622;BME280;44389;51.578;5.456;2023-04-07T10:23:20;101658.63;;;8.51;100.00
58622;BME280;44389;51.578;5.456;2023-04-07T10:25:48;101649.88;;;8.64;100.00
58622;BME280;44389;51.578;5.456;2023-04-07T10:28:17;101656.34;;;8.74;100.00
58622;BME280;44389;51.578;5.456;2023-04-07T10:30:46;101659.88;;;8.76;100.00
58622;BME280;44389;51.578;5.456;2023-04-07T10:33:12;101659.97;;;8.96;100.00
58622;BME280;44389;51.578;5.456;2023-04-07T10:36:03;101668.00;;;9.20;100.00
58622;BME280;44389;51.578;5.456;2023-04-07T10:38:30;101665.66;;;9.43;100.00
58622;BME280;44389;51.578;5.456;2023-04-07T10:40:55;101659.63;;;9.42;100.00
58622;BME280;44389;51.578;5.456;2023-04-07T10:43:38;101662.41;;;9.47;100.00
58622;BME280;44389;51.578;5.456;2023-04-07T10:46:06;101662.94;;;9.39;100.00
58622;BME280;44389;51.578;5.456;2023-04-07T10:48:31;101656.13;;;9.40;100.00
58622;BME280;44389;51.578;5.456;2023-04-07T10:53:28;101672.91;;;9.51;100.00
58622;BME280;44389;51.578;5.456;2023-04-07T10:55:56;101672.19;;;9.36;100.00
58622;BME280;44389;51.578;5.456;2023-04-07T10:58:31;101672.72;;;9.29;100.00
58622;BME280;44389;51.578;5.456;2023-04-07T11:03:23;101675.47;;;9.15;100.00
58622;BME280;44389;51.578;5.456;2023-04-07T11:05:49;101675.22;;;9.09;100.00
58622;BME280;44389;51.578;5.456;2023-04-07T11:08:15;101677.63;;;9.06;100.00
58622;BME280;44389;51.578;5.456;2023-04-07T11:10:55;101674.84;;;9.19;100.00
58622;BME280;44389;51.578;5.456;2023-04-07T11:13:21;101680.75;;;9.35;100.00
58622;BME280;44389;51.578;5.456;2023-04-07T11:15:49;101680.50;;;9.30;100.00
58622;BME280;44389;51.578;5.456;2023-04-07T11:18:20;101683.31;;;9.35;100.00
58622;BME280;44389;51.578;5.456;2023-04-07T11:20:53;101684.47;;;9.60;100.00
58622;BME280;44389;51.578;5.456;2023-04-07T11:23:22;101687.41;;;9.49;99.52
58622;BME280;44389;51.578;5.456;2023-04-07T11:25:50;101685.31;;;9.78;99.42
58622;BME280;44389;51.578;5.456;2023-04-07T11:28:16;101680.63;;;10.07;99.55
58622;BME280;44389;51.578;5.456;2023-04-07T11:30:50;101683.06;;;10.04;97.91
58622;BME280;44389;51.578;5.456;2023-04-07T11:33:21;101683.63;;;10.16;100.00
58622;BME280;44389;51.578;5.456;2023-04-07T11:35:52;101685.78;;;10.27;100.00
58622;BME280;44389;51.578;5.456;2023-04-07T11:38:18;101687.88;;;10.16;95.67
58622;BME280;44389;51.578;5.456;2023-04-07T11:40:43;101687.69;;;10.31;97.42
58622;BME280;44389;51.578;5.456;2023-04-07T11:43:26;101683.66;;;10.36;95.40
58622;BME280;44389;51.578;5.456;2023-04-07T11:46:05;101688.78;;;10.56;94.89
58622;BME280;44389;51.578;5.456;2023-04-07T11:48:32;101688.38;;;10.46;93.46
58622;BME280;44389;51.578;5.456;2023-04-07T11:50:59;101684.72;;;10.41;92.90
58622;BME280;44389;51.578;5.456;2023-04-07T11:53:32;101689.63;;;10.17;92.38
58622;BME280;44389;51.578;5.456;2023-04-07T11:56:03;101686.69;;;9.89;94.58
58622;BME280;44389;51.578;5.456;2023-04-07T11:58:28;101696.16;;;9.71;94.99
58622;BME280;44389;51.578;5.456;2023-04-07T12:00:58;101700.94;;;9.63;97.45
58622;BME280;44389;51.578;5.456;2023-04-07T12:03:27;101705.34;;;9.66;98.50
58622;BME280;44389;51.578;5.456;2023-04-07T12:05:53;101706.59;;;9.56;99.00
58622;BME280;44389;51.578;5.456;2023-04-07T12:08:19;101712.13;;;9.64;95.87
58622;BME280;44389;51.578;5.456;2023-04-07T12:10:45;101707.56;;;9.76;97.08
58622;BME280;44389;51.578;5.456;2023-04-07T12:13:12;101717.50;;;10.06;96.44
58622;BME280;44389;51.578;5.456;2023-04-07T12:15:38;101706.31;;;10.43;95.85
58622;BME280;44389;51.578;5.456;2023-04-07T12:18:03;101711.50;;;10.64;94.57
58622;BME280;44389;51.578;5.456;2023-04-07T12:20:28;101712.09;;;10.78;96.11
58622;BME280;44389;51.578;5.456;2023-04-07T12:22:54;101706.44;;;10.87;93.64
58622;BME280;44389;51.578;5.456;2023-04-07T12:25:19;101711.63;;;10.67;91.49
58622;BME280;44389;51.578;5.456;2023-04-07T12:27:45;101717.38;;;10.81;91.98
58622;BME280;44389;51.578;5.456;2023-04-07T12:30:11;101717.00;;;10.72;90.95
58622;BME280;44389;51.578;5.456;2023-04-07T12:32:37;101723.84;;;10.52;90.40
58622;BME280;44389;51.578;5.456;2023-04-07T12:35:03;101718.47;;;10.28;91.99
58622;BME280;44389;51.578;5.456;2023-04-07T12:37:28;101730.50;;;10.09;93.54
58622;BME280;44389;51.578;5.456;2023-04-07T12:39:53;101726.53;;;9.98;95.05
58622;BME280;44389;51.578;5.456;2023-04-07T12:42:19;101736.81;;;9.78;95.03
58622;BME280;44389;51.578;5.456;2023-04-07T12:44:45;101741.22;;;9.63;96.63
58622;BME280;44389;51.578;5.456;2023-04-07T12:47:10;101735.69;;;9.37;97.60
58622;BME280;44389;51.578;5.456;2023-04-07T12:49:36;101739.72;;;9.14;98.21
58622;BME280;44389;51.578;5.456;2023-04-07T12:52:01;101742.88;;;9.08;99.08
58622;BME280;44389;51.578;5.456;2023-04-07T12:54:27;101740.91;;;9.20;100.00
58622;BME280;44389;51.578;5.456;2023-04-07T12:56:53;101743.34;;;9.35;100.00
58622;BME280;44389;51.578;5.456;2023-04-07T12:59:18;101743.28;;;9.52;99.21